createdAt,value
2022-08-19T00:02:14.740Z,99315.00
2022-08-19T00:04:42.046Z,99298.25
2022-08-19T00:07:09.439Z,99293.75
2022-08-19T00:09:36.889Z,99293.72
2022-08-19T00:12:05.040Z,99307.91
2022-08-19T00:14:32.970Z,99317.59
2022-08-19T00:17:02.318Z,99318.47
2022-08-19T00:19:30.131Z,99314.13
2022-08-19T00:21:57.544Z,99311.50
2022-08-19T00:24:25.915Z,99307.97
2022-08-19T00:26:53.880Z,99304.41
2022-08-19T00:29:24.065Z,99308.03
2022-08-19T00:31:57.393Z,99308.97
2022-08-19T00:34:28.851Z,99308.09
2022-08-19T00:36:57.829Z,99302.81
2022-08-19T00:39:25.678Z,99304.63
2022-08-19T00:41:53.364Z,99304.63
2022-08-19T00:44:29.087Z,99310.72
2022-08-19T00:46:59.981Z,99302.75
2022-08-19T00:49:46.587Z,99293.03
2022-08-19T00:52:32.865Z,99285.09
2022-08-19T00:55:04.240Z,99269.13
2022-08-19T00:57:40.934Z,99269.09
2022-08-19T01:00:17.050Z,99282.41
2022-08-19T01:02:45.707Z,99290.41
2022-08-19T01:05:24.577Z,99274.44
2022-08-19T01:07:56.677Z,99258.53
2022-08-19T01:10:36.764Z,99253.16
2022-08-19T01:13:06.344Z,99254.84
2022-08-19T01:15:43.194Z,99252.19
2022-08-19T01:18:14.701Z,99253.97
2022-08-19T01:20:43.518Z,99253.19
2022-08-19T01:23:12.071Z,99262.00
2022-08-19T01:25:55.336Z,99261.19
2022-08-19T01:28:34.094Z,99280.59
2022-08-19T01:31:12.420Z,99285.91
2022-08-19T01:33:58.123Z,99267.31
2022-08-19T01:36:37.307Z,99271.69
2022-08-19T01:39:13.420Z,99272.50
2022-08-19T01:41:40.989Z,99267.19
2022-08-19T01:44:18.420Z,99265.44
2022-08-19T01:46:49.376Z,99264.53
2022-08-19T01:49:21.951Z,99271.69
2022-08-19T01:51:50.557Z,99283.31
2022-08-19T01:54:23.098Z,99281.59
2022-08-19T01:57:06.522Z,99277.19
2022-08-19T01:59:34.855Z,99276.28
2022-08-19T02:02:03.111Z,99275.34
2022-08-19T02:04:30.536Z,99278.94
2022-08-19T02:06:59.274Z,99278.06
2022-08-19T02:09:26.707Z,99275.38
2022-08-19T02:11:54.383Z,99272.69
2022-08-19T02:14:22.058Z,99265.59
2022-08-19T02:16:49.714Z,99259.34
2022-08-19T02:19:17.544Z,99269.03
2022-08-19T02:21:46.112Z,99260.19
2022-08-19T02:24:13.624Z,99248.69
2022-08-19T02:26:41.197Z,99249.59
2022-08-19T02:29:09.407Z,99247.88
2022-08-19T02:31:37.217Z,99251.47
2022-08-19T02:34:13.716Z,99238.28
2022-08-19T02:36:44.229Z,99230.34
2022-08-19T02:39:19.977Z,99228.59
2022-08-19T02:41:47.765Z,99227.69
2022-08-19T02:44:28.766Z,99232.06
2022-08-19T02:47:00.335Z,99232.03
2022-08-19T02:49:27.839Z,99239.97
2022-08-19T02:52:04.693Z,99239.13
2022-08-19T02:54:35.650Z,99238.22
2022-08-19T02:57:09.404Z,99230.25
2022-08-19T02:59:37.396Z,99230.25
2022-08-19T03:02:17.165Z,99224.97
2022-08-19T03:04:44.940Z,99221.44
2022-08-19T03:07:25.468Z,99229.38
2022-08-19T03:09:52.974Z,99247.09
2022-08-19T03:12:39.288Z,99240.03
2022-08-19T03:15:19.535Z,99235.63
2022-08-19T03:17:48.062Z,99237.38
2022-08-19T03:20:15.492Z,99239.19
2022-08-19T03:22:42.925Z,99237.41
2022-08-19T03:25:10.910Z,99234.72
2022-08-19T03:27:39.229Z,99232.94
2022-08-19T03:30:07.996Z,99242.66
2022-08-19T03:32:41.695Z,99243.59
2022-08-19T03:35:16.045Z,99245.41
2022-08-19T03:37:44.794Z,99262.22
2022-08-19T03:40:14.547Z,99271.09
2022-08-19T03:42:49.005Z,99261.34
2022-08-19T03:45:17.326Z,99259.59
2022-08-19T03:47:44.648Z,99272.88
2022-08-19T03:50:11.978Z,99278.19
2022-08-19T03:52:40.414Z,99285.22
2022-08-19T03:55:12.921Z,99296.72
2022-08-19T03:57:40.448Z,99295.75
2022-08-19T04:00:13.711Z,99286.00
2022-08-19T04:02:43.006Z,99281.59
2022-08-19T04:05:29.626Z,99277.19
2022-08-19T04:07:59.759Z,99286.06
2022-08-19T04:10:29.209Z,99287.84
2022-08-19T04:12:56.623Z,99294.06
2022-08-19T04:15:24.109Z,99302.03
2022-08-19T04:17:51.488Z,99319.63
2022-08-19T04:20:24.897Z,99321.41
2022-08-19T04:22:52.761Z,99321.38
2022-08-19T04:25:20.401Z,99324.03
2022-08-19T04:27:47.856Z,99324.84
2022-08-19T04:30:16.024Z,99333.69
2022-08-19T04:32:44.650Z,99361.06
2022-08-19T04:35:16.843Z,99360.13
2022-08-19T04:37:45.025Z,99365.41
2022-08-19T04:40:31.397Z,99370.75
2022-08-19T04:42:59.289Z,99372.56
2022-08-19T04:45:26.584Z,99372.53
2022-08-19T04:48:26.241Z,99375.16
2022-08-19T04:50:47.407Z,99389.34
2022-08-19T04:53:14.903Z,99392.88
2022-08-19T04:55:43.911Z,99391.94
2022-08-19T04:58:11.516Z,99399.13
2022-08-19T05:00:41.064Z,99403.56
2022-08-19T05:03:09.067Z,99408.88
2022-08-19T05:05:44.795Z,99415.00
2022-08-19T05:08:30.663Z,99422.91
2022-08-19T05:10:59.461Z,99431.72
2022-08-19T05:13:27.905Z,99440.53
2022-08-19T05:16:00.801Z,99450.25
2022-08-19T05:18:46.765Z,99447.63
2022-08-19T05:21:38.091Z,99447.66
2022-08-19T05:24:10.323Z,99446.72
2022-08-19T05:26:41.321Z,99447.59
2022-08-19T05:29:11.085Z,99448.53
2022-08-19T05:31:39.432Z,99445.84
2022-08-19T05:34:18.359Z,99444.13
2022-08-19T05:36:49.203Z,99455.59
2022-08-19T05:39:21.677Z,99453.88
2022-08-19T05:41:58.442Z,99460.94
2022-08-19T05:44:32.271Z,99464.50
2022-08-19T05:47:03.166Z,99467.22
2022-08-19T05:49:34.596Z,99470.69
2022-08-19T05:52:14.560Z,99466.31
2022-08-19T05:54:51.012Z,99473.41
2022-08-19T05:57:22.365Z,99474.31
2022-08-19T05:59:53.292Z,99488.44
2022-08-19T06:02:31.771Z,99477.78
2022-08-19T06:04:59.376Z,99479.66
2022-08-19T06:07:26.889Z,99474.34
2022-08-19T06:10:00.866Z,99469.16
2022-08-19T06:12:33.917Z,99462.91
2022-08-19T06:15:05.663Z,99452.34
2022-08-19T06:17:33.021Z,99456.75
2022-08-19T06:20:00.608Z,99460.03
2022-08-19T06:22:29.039Z,99470.63
2022-08-19T06:24:59.892Z,99460.91
2022-08-19T06:27:27.733Z,99462.81
2022-08-19T06:29:57.978Z,99450.59
2022-08-19T06:32:25.568Z,99432.06
2022-08-19T06:34:53.008Z,99403.81
2022-08-19T06:37:22.613Z,99387.00
2022-08-19T06:39:51.366Z,99376.38
2022-08-19T06:42:19.509Z,99371.06
2022-08-19T06:44:50.210Z,99379.03
2022-08-19T06:47:23.205Z,99380.78
2022-08-19T06:50:03.923Z,99387.03
2022-08-19T06:52:36.784Z,99386.19
2022-08-19T06:55:07.843Z,99383.50
2022-08-19T06:57:35.991Z,99396.75
2022-08-19T07:00:09.739Z,99417.97
2022-08-19T07:02:48.250Z,99431.25
2022-08-19T07:05:24.029Z,99449.84
2022-08-19T07:07:51.801Z,99453.38
2022-08-19T07:10:20.421Z,99463.13
2022-08-19T07:12:48.567Z,99467.50
2022-08-19T07:15:16.805Z,99470.16
2022-08-19T07:17:46.734Z,99474.56
2022-08-19T07:20:20.275Z,99475.47
2022-08-19T07:22:48.405Z,99487.03
2022-08-19T07:25:18.220Z,99476.41
2022-08-19T07:27:46.239Z,99476.41
2022-08-19T07:30:14.417Z,99476.44
2022-08-19T07:32:43.347Z,99474.69
2022-08-19T07:35:11.472Z,99478.22
2022-08-19T07:37:40.128Z,99482.63
2022-08-19T07:40:09.087Z,99483.53
2022-08-19T07:42:37.867Z,99479.19
2022-08-19T07:45:08.966Z,99473.03
2022-08-19T07:47:48.872Z,99469.47
2022-08-19T07:50:20.920Z,99463.28
2022-08-19T07:52:50.602Z,99470.38
2022-08-19T07:55:43.257Z,99477.31
2022-08-19T07:58:17.261Z,99494.13
2022-08-19T08:00:47.975Z,99492.34
2022-08-19T08:03:19.852Z,99487.94
2022-08-19T08:06:06.840Z,99486.22
2022-08-19T08:08:52.898Z,99490.66
2022-08-19T08:11:22.112Z,99491.63
2022-08-19T08:14:01.021Z,99491.66
2022-08-19T08:16:39.613Z,99494.31
2022-08-19T08:19:20.541Z,99493.41
2022-08-19T08:22:02.602Z,99495.16
2022-08-19T08:25:03.047Z,99493.41
2022-08-19T08:27:42.762Z,99501.38
2022-08-19T08:30:26.130Z,99506.69
2022-08-19T08:33:12.466Z,99504.00
2022-08-19T08:36:00.533Z,99503.13
2022-08-19T08:38:29.846Z,99497.78
2022-08-19T08:41:50.137Z,99502.19
2022-08-19T08:44:25.901Z,99496.91
2022-08-19T08:47:07.821Z,99494.22
2022-08-19T08:50:16.198Z,99504.88
2022-08-19T08:52:54.010Z,99503.09
2022-08-19T08:55:36.477Z,99500.47
2022-08-19T08:58:32.660Z,99512.00
2022-08-19T09:01:00.040Z,99512.88
2022-08-19T09:03:31.408Z,99525.25
2022-08-19T09:06:38.191Z,99525.28
2022-08-19T09:09:36.797Z,99524.31
2022-08-19T09:12:52.137Z,99523.47
2022-08-19T09:15:33.460Z,99527.91
2022-08-19T09:18:07.175Z,99520.69
2022-08-19T09:20:37.333Z,99527.75
2022-08-19T09:23:11.735Z,99528.63
2022-08-19T09:25:41.056Z,99513.50
2022-08-19T09:28:15.521Z,99517.84
2022-08-19T09:30:53.149Z,99520.44
2022-08-19T09:33:30.152Z,99514.34
2022-08-19T09:36:31.114Z,99510.59
2022-08-19T09:39:16.248Z,99515.00
2022-08-19T09:41:50.750Z,99505.16
2022-08-19T09:44:21.285Z,99509.09
2022-08-19T09:46:49.917Z,99513.50
2022-08-19T09:49:22.582Z,99507.31
2022-08-19T09:51:55.332Z,99497.31
2022-08-19T09:54:32.669Z,99495.41
2022-08-19T09:57:22.834Z,99496.50
2022-08-19T10:00:00.443Z,99500.22
2022-08-19T10:02:36.173Z,99500.75
2022-08-19T10:05:26.826Z,99494.50
2022-08-19T10:07:58.341Z,99490.88
2022-08-19T10:10:25.907Z,99494.56
2022-08-19T10:12:55.562Z,99482.25
2022-08-19T10:15:29.050Z,99489.22
2022-08-19T10:17:58.862Z,99491.66
2022-08-19T10:20:39.661Z,99478.63
2022-08-19T10:23:07.673Z,99473.91
2022-08-19T10:25:35.990Z,99473.28
2022-08-19T10:28:10.660Z,99477.97
2022-08-19T10:30:41.614Z,99474.75
2022-08-19T10:33:11.179Z,99458.38
2022-08-19T10:35:42.836Z,99455.69
2022-08-19T10:38:33.037Z,99454.75
2022-08-19T10:41:16.325Z,99450.84
2022-08-19T10:43:46.003Z,99454.44
2022-08-19T10:46:16.922Z,99443.66
2022-08-19T10:48:45.431Z,99439.34
2022-08-19T10:51:32.047Z,99445.56
2022-08-19T10:54:01.039Z,99440.00
2022-08-19T10:56:48.102Z,99432.31
2022-08-19T10:59:16.948Z,99438.50
2022-08-19T11:01:47.446Z,99443.28
2022-08-19T11:04:23.070Z,99444.66
2022-08-19T11:06:57.535Z,99449.16
2022-08-19T11:09:34.331Z,99446.47
2022-08-19T11:12:03.009Z,99446.66
2022-08-19T11:14:34.739Z,99444.88
2022-08-19T11:17:04.649Z,99442.25
2022-08-19T11:19:32.984Z,99441.47
2022-08-19T11:22:02.402Z,99440.94
2022-08-19T11:24:32.612Z,99434.09
2022-08-19T11:27:10.104Z,99433.69
2022-08-19T11:29:40.165Z,99441.53
2022-08-19T11:32:11.323Z,99439.22
2022-08-19T11:34:38.819Z,99444.09
2022-08-19T11:37:07.368Z,99440.59
2022-08-19T11:39:37.802Z,99436.78
2022-08-19T11:42:27.733Z,99437.94
2022-08-19T11:44:55.756Z,99441.66
2022-08-19T11:47:23.142Z,99439.84
2022-08-19T11:49:50.621Z,99430.19
2022-08-19T11:52:18.013Z,99433.69
2022-08-19T11:54:45.329Z,99431.28
2022-08-19T11:57:12.789Z,99422.38
2022-08-19T11:59:40.112Z,99419.41
2022-08-19T12:02:07.338Z,99405.72
2022-08-19T12:04:35.532Z,99407.94
2022-08-19T12:07:03.090Z,99397.94
2022-08-19T12:09:31.067Z,99383.69
2022-08-19T12:11:58.602Z,99388.59
2022-08-19T12:14:25.958Z,99381.41
2022-08-19T12:16:53.326Z,99379.84
2022-08-19T12:19:21.841Z,99382.19
2022-08-19T12:21:51.662Z,99380.59
2022-08-19T12:24:24.243Z,99383.91
2022-08-19T12:26:52.539Z,99388.81
2022-08-19T12:29:23.864Z,99379.16
2022-08-19T12:31:52.373Z,99372.03
2022-08-19T12:34:21.123Z,99379.44
2022-08-19T12:36:50.325Z,99373.66
2022-08-19T12:39:18.232Z,99367.28
2022-08-19T12:41:54.795Z,99363.47
2022-08-19T12:44:29.127Z,99350.19
2022-08-19T12:47:01.299Z,99342.78
2022-08-19T12:49:51.996Z,99347.50
2022-08-19T12:52:23.110Z,99333.19
2022-08-19T12:54:53.859Z,99338.56
2022-08-19T12:57:33.537Z,99327.09
2022-08-19T13:00:16.755Z,99331.34
2022-08-19T13:02:48.146Z,99327.72
2022-08-19T13:05:23.782Z,99322.69
2022-08-19T13:07:58.066Z,99324.72
2022-08-19T13:10:35.880Z,99323.22
2022-08-19T13:13:10.533Z,99310.19
2022-08-19T13:15:43.712Z,99317.38
2022-08-19T13:18:13.510Z,99309.25
2022-08-19T13:20:42.602Z,99306.19
2022-08-19T13:23:19.961Z,99298.34
2022-08-19T13:26:02.997Z,99295.69
2022-08-19T13:28:50.494Z,99285.00
2022-08-19T13:31:39.308Z,99283.59
2022-08-19T13:34:07.400Z,99281.47
2022-08-19T13:36:36.934Z,99294.75
2022-08-19T13:39:08.497Z,99295.63
2022-08-19T13:41:37.555Z,99288.25
2022-08-19T13:44:07.648Z,99287.81
2022-08-19T13:46:36.062Z,99298.44
2022-08-19T13:49:03.382Z,99294.22
2022-08-19T13:51:30.822Z,99282.00
2022-08-19T13:53:58.121Z,99271.19
2022-08-19T13:56:26.607Z,99271.38
2022-08-19T13:58:54.548Z,99269.84
2022-08-19T14:01:24.534Z,99263.47
2022-08-19T14:03:52.836Z,99260.31
2022-08-19T14:06:22.209Z,99253.44
2022-08-19T14:08:50.111Z,99253.50
2022-08-19T14:11:17.856Z,99252.44
2022-08-19T14:13:45.895Z,99241.75
2022-08-19T14:16:15.641Z,99251.28
2022-08-19T14:18:44.340Z,99242.03
2022-08-19T14:21:21.174Z,99230.41
2022-08-19T14:23:49.039Z,99229.66
2022-08-19T14:26:19.777Z,99231.75
2022-08-19T14:28:47.889Z,99234.56
2022-08-19T14:31:19.886Z,99221.97
2022-08-19T14:33:51.422Z,99226.06
2022-08-19T14:36:21.233Z,99223.47
2022-08-19T14:38:49.789Z,99219.47
2022-08-19T14:41:22.679Z,99215.97
2022-08-19T14:43:53.785Z,99220.44
2022-08-19T14:46:28.089Z,99215.97
2022-08-19T14:48:57.740Z,99215.13
2022-08-19T14:51:28.110Z,99218.50
2022-08-19T14:53:56.198Z,99218.63
2022-08-19T14:56:28.604Z,99220.22
2022-08-19T14:58:57.984Z,99216.47
2022-08-19T15:01:26.245Z,99222.69
2022-08-19T15:03:55.587Z,99222.91
2022-08-19T15:06:25.685Z,99221.88
2022-08-19T15:08:55.182Z,99224.06
2022-08-19T15:11:27.406Z,99219.47
2022-08-19T15:13:58.345Z,99216.75
2022-08-19T15:16:27.027Z,99220.38
2022-08-19T15:18:59.854Z,99225.88
2022-08-19T15:21:29.158Z,99225.88
2022-08-19T15:23:59.647Z,99225.59
2022-08-19T15:26:31.895Z,99240.25
2022-08-19T15:29:01.922Z,99232.00
2022-08-19T15:31:29.909Z,99238.72
2022-08-19T15:33:58.808Z,99244.75
2022-08-19T15:36:28.292Z,99238.56
2022-08-19T15:38:58.858Z,99246.59
2022-08-19T15:41:30.879Z,99244.47
2022-08-19T15:44:09.689Z,99238.59
2022-08-19T15:46:41.293Z,99240.22
2022-08-19T15:49:10.673Z,99243.38
2022-08-19T15:51:40.171Z,99235.91
2022-08-19T15:54:12.139Z,99249.75
2022-08-19T15:56:59.027Z,99249.53
2022-08-19T15:59:47.081Z,99248.69
2022-08-19T16:02:37.449Z,99241.16
2022-08-19T16:05:29.497Z,99249.13
2022-08-19T16:07:57.648Z,99262.25
2022-08-19T16:10:27.224Z,99261.75
2022-08-19T16:12:57.662Z,99252.66
2022-08-19T16:15:30.525Z,99261.53
2022-08-19T16:17:58.871Z,99264.50
2022-08-19T16:20:28.641Z,99254.75
2022-08-19T16:22:59.047Z,99262.66
2022-08-19T16:25:29.226Z,99256.19
2022-08-19T16:28:07.272Z,99269.06
2022-08-19T16:30:39.360Z,99263.47
2022-08-19T16:33:08.354Z,99269.22
2022-08-19T16:35:37.006Z,99267.94
2022-08-19T16:38:05.894Z,99271.66
2022-08-19T16:40:35.247Z,99268.63
2022-08-19T16:43:02.962Z,99266.81
2022-08-19T16:45:30.973Z,99270.72
2022-08-19T16:47:58.615Z,99275.94
2022-08-19T16:50:46.211Z,99273.59
2022-08-19T16:53:16.349Z,99270.84
2022-08-19T16:55:45.050Z,99267.19
2022-08-19T16:58:12.334Z,99272.91
2022-08-19T17:00:40.025Z,99271.63
2022-08-19T17:03:15.131Z,99271.63
2022-08-19T17:05:55.373Z,99276.63
2022-08-19T17:08:26.437Z,99276.91
2022-08-19T17:11:17.110Z,99286.69
2022-08-19T17:13:44.416Z,99284.91
2022-08-19T17:16:17.109Z,99282.63
2022-08-19T17:18:44.525Z,99286.38
2022-08-19T17:21:13.158Z,99291.16
2022-08-19T17:23:43.126Z,99285.25
2022-08-19T17:26:17.949Z,99294.59
2022-08-19T17:28:50.890Z,99305.34
2022-08-19T17:31:23.080Z,99303.09
2022-08-19T17:33:51.492Z,99310.56
2022-08-19T17:36:26.419Z,99314.22
2022-08-19T17:38:56.178Z,99317.47
2022-08-19T17:41:26.793Z,99322.25
2022-08-19T17:43:54.835Z,99324.59
2022-08-19T17:46:22.176Z,99324.06
2022-08-19T17:48:55.058Z,99322.59
2022-08-19T17:51:43.142Z,99329.06
2022-08-19T17:54:19.734Z,99329.00
2022-08-19T17:56:47.868Z,99330.16
2022-08-19T17:59:15.990Z,99335.22
2022-08-19T18:01:53.839Z,99333.69
2022-08-19T18:04:25.857Z,99335.91
2022-08-19T18:06:55.569Z,99344.56
2022-08-19T18:09:41.549Z,99342.31
2022-08-19T18:12:13.833Z,99340.03
2022-08-19T18:14:41.993Z,99347.69
2022-08-19T18:17:17.167Z,99361.38
2022-08-19T18:19:47.585Z,99367.91
2022-08-19T18:22:31.285Z,99355.59
2022-08-19T18:24:59.139Z,99368.06
2022-08-19T18:27:27.670Z,99367.19
2022-08-19T18:29:59.079Z,99369.97
2022-08-19T18:32:38.226Z,99376.53
2022-08-19T18:35:29.600Z,99380.28
2022-08-19T18:38:01.140Z,99375.25
2022-08-19T18:40:48.212Z,99377.31
2022-08-19T18:43:15.473Z,99381.09
2022-08-19T18:46:02.458Z,99384.00
2022-08-19T18:48:49.116Z,99387.75
2022-08-19T18:51:18.705Z,99395.03
2022-08-19T18:53:50.519Z,99393.41
2022-08-19T18:56:20.137Z,99398.03
2022-08-19T18:58:47.565Z,99403.53
2022-08-19T19:01:29.424Z,99404.50
2022-08-19T19:04:04.358Z,99405.44
2022-08-19T19:06:38.060Z,99401.84
2022-08-19T19:09:11.215Z,99417.03
2022-08-19T19:11:45.522Z,99407.22
2022-08-19T19:14:48.094Z,99418.81
2022-08-19T19:17:16.101Z,99415.31
2022-08-19T19:19:44.451Z,99414.53
2022-08-19T19:22:20.150Z,99417.31
2022-08-19T19:24:47.798Z,99424.56
2022-08-19T19:27:18.522Z,99416.63
2022-08-19T19:29:51.545Z,99430.88
2022-08-19T19:32:29.408Z,99430.91
2022-08-19T19:34:57.377Z,99439.84
2022-08-19T19:37:24.746Z,99438.00
2022-08-19T19:39:52.464Z,99441.50
2022-08-19T19:42:23.657Z,99444.22
2022-08-19T19:44:54.739Z,99442.47
2022-08-19T19:47:24.321Z,99447.06
2022-08-19T19:50:13.273Z,99441.91
2022-08-19T19:52:41.129Z,99450.78
2022-08-19T19:55:09.981Z,99453.44
2022-08-19T19:57:39.249Z,99463.31
2022-08-19T20:00:08.989Z,99458.88
2022-08-19T20:02:36.298Z,99467.78
2022-08-19T20:05:04.505Z,99466.03
2022-08-19T20:07:50.557Z,99473.16
2022-08-19T20:10:17.998Z,99474.09
2022-08-19T20:12:45.314Z,99472.31
2022-08-19T20:15:12.968Z,99476.78
2022-08-19T20:17:42.503Z,99479.47
2022-08-19T20:20:17.203Z,99483.97
2022-08-19T20:22:47.315Z,99491.03
2022-08-19T20:25:22.262Z,99491.97
2022-08-19T20:27:50.541Z,99497.28
2022-08-19T20:30:21.650Z,99492.84
2022-08-19T20:32:51.033Z,99489.25
2022-08-19T20:35:21.740Z,99492.81
2022-08-19T20:37:52.842Z,99493.69
2022-08-19T20:40:23.374Z,99492.88
2022-08-19T20:42:50.771Z,99500.88
2022-08-19T20:45:32.335Z,99495.56
2022-08-19T20:48:03.333Z,99506.22
2022-08-19T20:50:34.847Z,99498.19
2022-08-19T20:53:15.210Z,99493.72
2022-08-19T20:55:51.749Z,99483.97
2022-08-19T20:58:22.992Z,99476.88
2022-08-19T21:00:54.387Z,99486.63
2022-08-19T21:03:27.129Z,99491.03
2022-08-19T21:05:56.566Z,99494.59
2022-08-19T21:08:25.417Z,99500.81
2022-08-19T21:10:55.569Z,99499.00
2022-08-19T21:13:24.617Z,99494.59
2022-08-19T21:15:52.165Z,99507.06
2022-08-19T21:18:22.836Z,99513.31
2022-08-19T21:20:50.870Z,99513.34
2022-08-19T21:23:26.641Z,99518.69
2022-08-19T21:25:57.400Z,99506.25
2022-08-19T21:28:35.082Z,99511.56
2022-08-19T21:31:06.947Z,99511.63
2022-08-19T21:33:34.665Z,99517.00
2022-08-19T21:36:03.825Z,99512.56
2022-08-19T21:38:32.000Z,99515.25
2022-08-19T21:41:04.188Z,99517.00
2022-08-19T21:43:37.427Z,99524.13
2022-08-19T21:46:06.180Z,99532.09
2022-08-19T21:48:33.510Z,99533.88
2022-08-19T21:51:00.904Z,99527.72
2022-08-19T21:53:34.233Z,99522.41
2022-08-19T21:56:04.015Z,99525.97
2022-08-19T21:58:31.449Z,99534.84
2022-08-19T22:01:01.413Z,99541.06
2022-08-19T22:03:29.457Z,99542.88
2022-08-19T22:05:58.522Z,99545.56
2022-08-19T22:08:27.220Z,99542.91
2022-08-19T22:10:55.093Z,99550.00
2022-08-19T22:13:22.395Z,99553.56
2022-08-19T22:15:51.861Z,99554.47
2022-08-19T22:18:19.250Z,99551.81
2022-08-19T22:20:47.885Z,99551.84
2022-08-19T22:23:15.215Z,99559.81
2022-08-19T22:25:46.621Z,99555.38
2022-08-19T22:28:19.138Z,99542.13
2022-08-19T22:30:56.031Z,99543.91
2022-08-19T22:33:25.644Z,99534.16
2022-08-19T22:35:53.897Z,99535.91
2022-08-19T22:38:21.128Z,99522.63
2022-08-19T22:40:51.281Z,99544.81
2022-08-19T22:43:32.392Z,99546.56
2022-08-19T22:46:00.981Z,99547.47
2022-08-19T22:48:31.198Z,99543.91
2022-08-19T22:51:18.717Z,99549.25
2022-08-19T22:53:48.346Z,99550.16
2022-08-19T22:56:19.074Z,99539.50
2022-08-19T22:58:49.999Z,99537.72
2022-08-19T23:01:27.497Z,99527.97
2022-08-19T23:04:00.121Z,99533.28
2022-08-19T23:06:37.194Z,99540.38
2022-08-19T23:09:08.784Z,99538.59
2022-08-19T23:11:41.995Z,99549.25
2022-08-19T23:14:11.285Z,99550.13
2022-08-19T23:16:39.551Z,99558.97
2022-08-19T23:19:10.384Z,99552.78
2022-08-19T23:21:40.921Z,99561.63
2022-08-19T23:24:09.151Z,99571.41
2022-08-19T23:26:36.432Z,99569.63
2022-08-19T23:29:24.404Z,99566.09
2022-08-19T23:31:51.749Z,99561.63
2022-08-19T23:34:19.032Z,99568.75
2022-08-19T23:36:46.355Z,99563.41
2022-08-19T23:39:14.279Z,99561.63
2022-08-19T23:41:41.632Z,99556.31
2022-08-19T23:44:14.539Z,99558.97
2022-08-19T23:46:54.899Z,99559.88
2022-08-19T23:49:25.393Z,99560.78
2022-08-19T23:51:55.468Z,99563.44
2022-08-19T23:54:34.428Z,99560.75
2022-08-19T23:57:14.087Z,99563.41
2022-08-19T23:59:45.595Z,99559.81
